Time;durP1;ratioP1;P1;durP2;ratioP2;P2;SDS_P1;SDS_P2;PMS_P1;PMS_P2;Temp;Humidity;BMP_temperature;BMP_pressure;BME280_temperature;BME280_humidity;BME280_pressure;Samples;Min_cycle;Max_cycle;Signal;HPM_P1;HPM_P2
2022/08/15 00:01:36;;;;;;;8.65;6.22;;;22.10;99.90;;;;;;4985045;28;20044;-57
2022/08/15 00:04:05;;;;;;;7.85;6.15;;;22.20;99.90;;;;;;4982490;28;20026;-57
2022/08/15 00:06:41;;;;;;;9.95;6.82;;;22.10;99.90;;;;;;4982126;28;20112;-57
2022/08/15 00:09:14;;;;;;;12.80;6.43;;;22.10;99.90;;;;;;4984825;28;20169;-57
2022/08/15 00:11:44;;;;;;;7.60;6.72;;;22.20;99.90;;;;;;4983213;28;20045;-58
2022/08/15 00:14:17;;;;;;;7.15;6.43;;;22.30;99.90;;;;;;4982804;28;20026;-58
2022/08/15 00:16:44;;;;;;;7.40;6.60;;;22.10;99.90;;;;;;4986363;28;20033;-57
2022/08/15 00:19:20;;;;;;;8.02;6.55;;;21.90;99.90;;;;;;4983783;28;20096;-57
2022/08/15 00:21:49;;;;;;;7.15;6.45;;;21.90;99.90;;;;;;4978862;28;20545;-57
2022/08/15 00:24:18;;;;;;;7.63;6.07;;;21.80;99.90;;;;;;4981394;28;20453;-56
2022/08/15 00:26:48;;;;;;;6.97;6.28;;;21.90;99.90;;;;;;4985147;28;20371;-58
2022/08/15 00:29:15;;;;;;;9.07;6.97;;;21.90;99.90;;;;;;4980561;28;20039;-57
2022/08/15 00:31:41;;;;;;;7.10;6.40;;;22.00;99.90;;;;;;4979577;28;20026;-57
2022/08/15 00:34:09;;;;;;;7.22;6.45;;;22.00;99.90;;;;;;4975997;28;20474;-57
2022/08/15 00:36:34;;;;;;;8.45;6.15;;;21.90;99.90;;;;;;4982210;28;20105;-57
2022/08/15 00:39:01;;;;;;;6.45;5.80;;;21.90;99.90;;;;;;4982113;28;20111;-58
2022/08/15 00:41:41;;;;;;;7.07;5.97;;;22.10;99.90;;;;;;4983397;28;20950;-56
2022/08/15 00:44:17;;;;;;;6.80;6.03;;;22.00;99.90;;;;;;4984134;28;20081;-57
2022/08/15 00:46:47;;;;;;;6.72;5.85;;;21.90;99.90;;;;;;4984124;28;20106;-58
2022/08/15 00:49:14;;;;;;;7.70;5.88;;;22.00;99.90;;;;;;4980078;28;20030;-57
2022/08/15 00:51:50;;;;;;;7.38;6.60;;;21.90;99.90;;;;;;4986714;28;20563;-58
2022/08/15 00:54:41;;;;;;;7.57;5.72;;;21.80;99.90;;;;;;4993165;28;20022;-57
2022/08/15 00:57:11;;;;;;;8.07;6.10;;;21.70;99.90;;;;;;4992294;28;20052;-56
2022/08/15 00:59:44;;;;;;;7.35;5.82;;;21.80;99.90;;;;;;4989477;28;20030;-57
2022/08/15 01:02:17;;;;;;;8.95;6.25;;;21.70;99.90;;;;;;4987747;28;20039;-58
2022/08/15 01:04:45;;;;;;;8.30;5.63;;;21.70;99.90;;;;;;5003273;28;20030;-56
2022/08/15 01:07:12;;;;;;;6.75;5.97;;;21.60;99.90;;;;;;4989140;28;20124;-57
2022/08/15 01:09:39;;;;;;;7.47;5.63;;;21.60;99.90;;;;;;4987834;28;20034;-57
2022/08/15 01:12:15;;;;;;;6.60;5.40;;;21.80;99.90;;;;;;4989492;28;20494;-57
2022/08/15 01:14:45;;;;;;;6.40;5.55;;;21.70;99.90;;;;;;4988386;28;20026;-56
2022/08/15 01:17:12;;;;;;;6.22;5.57;;;21.80;99.90;;;;;;4988125;28;20041;-58
2022/08/15 01:19:49;;;;;;;6.93;5.40;;;21.60;99.90;;;;;;4994335;28;20035;-57
2022/08/15 01:22:38;;;;;;;6.47;5.15;;;21.50;99.90;;;;;;4991801;28;20026;-58
2022/08/15 01:25:06;;;;;;;8.05;4.80;;;21.60;99.90;;;;;;5002572;28;20038;-57
2022/08/15 01:27:52;;;;;;;5.63;5.10;;;21.50;99.90;;;;;;4987815;28;20037;-56
2022/08/15 01:30:22;;;;;;;5.32;4.38;;;21.50;99.90;;;;;;4988170;28;20174;-57
2022/08/15 01:32:47;;;;;;;6.45;4.85;;;21.50;99.90;;;;;;4992168;28;20037;-57
2022/08/15 01:35:14;;;;;;;5.35;4.53;;;21.60;99.90;;;;;;4987214;28;20022;-58
2022/08/15 01:37:41;;;;;;;8.20;4.38;;;21.80;99.90;;;;;;4986649;28;20018;-57
2022/08/15 01:40:40;;;;;;;6.47;4.30;;;21.70;99.90;;;;;;4991188;28;20037;-56
2022/08/15 01:43:11;;;;;;;6.45;4.60;;;21.50;99.90;;;;;;4988380;28;20026;-57
2022/08/15 01:45:40;;;;;;;7.60;4.18;;;21.50;99.90;;;;;;5006583;28;20030;-57
2022/08/15 01:48:15;;;;;;;5.50;3.88;;;21.50;99.90;;;;;;4989392;28;20033;-57
2022/08/15 01:50:53;;;;;;;8.23;4.13;;;21.60;99.90;;;;;;4988922;28;20030;-57
2022/08/15 01:53:39;;;;;;;6.15;3.72;;;21.50;99.90;;;;;;4986473;28;20022;-56
2022/08/15 01:56:11;;;;;;;5.28;3.75;;;21.50;99.90;;;;;;4987008;28;20106;-57
2022/08/15 01:58:39;;;;;;;5.80;3.50;;;21.60;99.90;;;;;;4988444;28;20030;-58
2022/08/15 02:01:11;;;;;;;6.13;3.50;;;21.60;99.90;;;;;;4988268;28;20030;-57
2022/08/15 02:03:39;;;;;;;5.80;3.53;;;21.50;99.90;;;;;;4986605;28;20027;-57
2022/08/15 02:06:10;;;;;;;8.70;3.83;;;21.70;99.90;;;;;;4983819;28;20474;-58
2022/08/15 02:08:36;;;;;;;5.00;3.63;;;21.70;99.90;;;;;;4983311;28;20050;-58
2022/08/15 02:11:05;;;;;;;4.28;3.55;;;21.60;99.90;;;;;;4978909;28;20577;-57
2022/08/15 02:13:31;;;;;;;6.57;3.38;;;21.60;99.90;;;;;;4990819;28;20707;-57
2022/08/15 02:15:56;;;;;;;6.65;3.50;;;21.50;99.90;;;;;;4986456;28;20105;-56
2022/08/15 02:18:22;;;;;;;5.03;3.35;;;21.40;99.90;;;;;;4986308;28;20019;-57
2022/08/15 02:20:48;;;;;;;7.18;3.05;;;21.60;99.90;;;;;;4986261;28;20030;-56
2022/08/15 02:23:14;;;;;;;4.65;3.10;;;21.60;99.90;;;;;;4985960;28;20390;-58
2022/08/15 02:25:39;;;;;;;5.50;2.88;;;21.40;99.90;;;;;;4988737;28;20044;-56
2022/08/15 02:28:06;;;;;;;4.53;2.90;;;21.30;99.90;;;;;;4984749;28;20057;-57
2022/08/15 02:30:33;;;;;;;7.30;3.22;;;21.40;99.90;;;;;;4988843;28;20437;-57
2022/08/15 02:33:00;;;;;;;5.85;3.20;;;21.30;99.90;;;;;;4991145;28;20026;-57
2022/08/15 02:35:26;;;;;;;4.45;3.13;;;21.40;99.90;;;;;;4983226;28;20057;-58
2022/08/15 02:37:51;;;;;;;6.70;3.08;;;21.40;99.90;;;;;;4992667;28;20054;-57
2022/08/15 02:40:19;;;;;;;6.38;2.83;;;21.40;99.90;;;;;;4984063;28;20030;-58
2022/08/15 02:42:46;;;;;;;4.75;2.85;;;21.50;99.90;;;;;;4988143;28;20117;-57
2022/08/15 02:45:13;;;;;;;4.57;2.92;;;21.50;99.90;;;;;;4984823;28;20430;-57
2022/08/15 02:47:43;;;;;;;8.02;2.90;;;21.50;99.90;;;;;;4981033;28;20022;-57
2022/08/15 02:50:09;;;;;;;7.25;3.10;;;21.60;99.90;;;;;;4981940;28;20378;-56
2022/08/15 02:52:39;;;;;;;5.95;2.65;;;21.60;99.90;;;;;;4984757;28;20497;-57
2022/08/15 02:55:06;;;;;;;4.82;2.63;;;21.60;99.90;;;;;;4989280;28;20030;-56
2022/08/15 02:57:32;;;;;;;5.65;2.60;;;21.50;99.90;;;;;;4986249;28;20090;-57
2022/08/15 02:59:57;;;;;;;4.47;2.95;;;21.50;99.90;;;;;;4984030;28;20474;-57
2022/08/15 03:02:24;;;;;;;5.03;3.20;;;21.40;99.90;;;;;;4989040;28;20352;-57
2022/08/15 03:04:50;;;;;;;6.95;2.90;;;21.40;99.90;;;;;;4980888;28;20516;-57
2022/08/15 03:07:15;;;;;;;6.05;2.55;;;21.20;99.90;;;;;;4981422;28;20031;-57
2022/08/15 03:09:41;;;;;;;5.10;2.70;;;21.30;99.90;;;;;;4986631;28;20084;-56
2022/08/15 03:12:07;;;;;;;5.97;2.95;;;21.10;99.90;;;;;;4984927;28;20041;-58
2022/08/15 03:14:36;;;;;;;4.85;3.05;;;21.30;99.90;;;;;;4985956;28;20466;-56
2022/08/15 03:17:03;;;;;;;8.10;3.15;;;21.30;99.90;;;;;;4991144;28;20030;-57
2022/08/15 03:19:29;;;;;;;3.70;2.78;;;21.40;99.90;;;;;;4987650;28;20023;-58
2022/08/15 03:21:54;;;;;;;6.32;2.75;;;21.60;99.90;;;;;;4988394;28;20142;-57
2022/08/15 03:24:22;;;;;;;4.72;2.80;;;21.70;99.90;;;;;;4981153;28;20508;-57
2022/08/15 03:26:48;;;;;;;5.88;2.72;;;21.70;99.90;;;;;;4987172;28;20030;-57
2022/08/15 03:29:18;;;;;;;4.10;2.90;;;21.60;99.90;;;;;;4982983;28;20034;-57
2022/08/15 03:31:47;;;;;;;7.80;3.08;;;21.60;99.90;;;;;;4983823;28;20038;-56
2022/08/15 03:34:15;;;;;;;4.80;2.75;;;21.70;99.90;;;;;;4989316;28;20075;-56
2022/08/15 03:36:44;;;;;;;5.93;3.00;;;21.70;99.90;;;;;;4981612;28;20054;-57
2022/08/15 03:39:10;;;;;;;3.25;2.72;;;21.60;99.90;;;;;;4983564;28;20026;-57
2022/08/15 03:41:36;;;;;;;7.70;2.75;;;21.60;99.90;;;;;;4985178;28;20367;-57
2022/08/15 03:44:02;;;;;;;4.03;2.45;;;21.50;99.90;;;;;;4986663;28;20022;-57
2022/08/15 03:46:28;;;;;;;6.72;2.60;;;21.50;99.90;;;;;;4991811;28;20040;-57
2022/08/15 03:48:56;;;;;;;5.85;2.85;;;21.50;99.90;;;;;;4984986;28;20030;-57
2022/08/15 03:51:24;;;;;;;5.97;3.10;;;21.40;99.90;;;;;;4981584;28;20035;-57
2022/08/15 03:53:55;;;;;;;6.65;2.80;;;21.30;99.90;;;;;;4986371;28;20029;-57
2022/08/15 03:56:24;;;;;;;5.38;2.78;;;21.30;99.90;;;;;;4988653;28;20030;-57
2022/08/15 03:58:51;;;;;;;5.15;3.15;;;21.30;99.90;;;;;;4987862;28;20469;-58
2022/08/15 04:01:20;;;;;;;5.97;3.20;;;21.50;99.90;;;;;;4987714;28;20026;-57
2022/08/15 04:03:47;;;;;;;6.93;2.92;;;21.50;99.90;;;;;;4986722;28;20045;-56
2022/08/15 04:06:16;;;;;;;5.93;3.00;;;21.50;99.90;;;;;;4988160;28;20488;-57
2022/08/15 04:08:46;;;;;;;8.80;2.80;;;21.50;99.90;;;;;;4979344;28;20035;-57
2022/08/15 04:11:12;;;;;;;4.38;2.83;;;21.40;99.90;;;;;;4984359;28;20038;-57
2022/08/15 04:13:39;;;;;;;4.60;2.55;;;21.30;99.90;;;;;;4985128;28;20042;-57
2022/08/15 04:16:06;;;;;;;6.78;2.72;;;21.30;99.90;;;;;;4991723;28;20371;-56
2022/08/15 04:18:32;;;;;;;5.03;2.78;;;21.20;99.90;;;;;;4997920;28;20029;-58
2022/08/15 04:21:01;;;;;;;7.28;2.92;;;21.10;99.90;;;;;;4988249;28;20022;-57
2022/08/15 04:23:28;;;;;;;5.45;2.65;;;21.20;99.90;;;;;;4986467;28;20073;-57
2022/08/15 04:25:54;;;;;;;5.65;2.90;;;21.20;99.90;;;;;;4984657;28;20046;-58
2022/08/15 04:28:22;;;;;;;4.93;2.83;;;21.10;99.90;;;;;;4989194;28;20029;-57
2022/08/15 04:30:49;;;;;;;8.18;3.05;;;21.30;99.90;;;;;;4985205;28;20033;-56
2022/08/15 04:33:21;;;;;;;4.85;3.00;;;21.30;99.90;;;;;;4977134;28;20040;-57
2022/08/15 04:35:55;;;;;;;5.43;3.00;;;21.30;99.90;;;;;;4982860;28;20049;-57
2022/08/15 04:38:21;;;;;;;;;;;21.10;99.90;;;;;;4984752;28;20023;-57
2022/08/15 04:40:48;;;;;;;5.78;2.72;;;21.20;99.90;;;;;;4984245;28;20032;-57
2022/08/15 04:43:15;;;;;;;5.82;2.90;;;21.30;99.90;;;;;;4987159;28;20030;-57
2022/08/15 04:45:42;;;;;;;5.82;2.70;;;21.30;99.90;;;;;;4985870;28;20034;-58
2022/08/15 04:48:12;;;;;;;7.10;3.28;;;21.40;99.90;;;;;;4980701;28;20453;-59
2022/08/15 04:50:38;;;;;;;6.75;2.95;;;21.40;99.90;;;;;;4984488;28;20038;-57
2022/08/15 04:53:09;;;;;;;5.22;2.85;;;21.50;99.90;;;;;;4985992;28;20109;-58
2022/08/15 04:55:41;;;;;;;5.70;2.92;;;21.60;99.90;;;;;;4985190;28;20038;-58
2022/08/15 04:58:08;;;;;;;4.07;2.55;;;21.70;99.90;;;;;;4980481;28;20015;-57
2022/08/15 05:00:33;;;;;;;6.20;2.83;;;21.70;99.90;;;;;;4980802;28;20042;-58
2022/08/15 05:03:14;;;;;;;6.30;2.85;;;21.80;99.90;;;;;;4985894;28;20363;-57
2022/08/15 05:05:51;;;;;;;5.43;2.72;;;21.70;99.90;;;;;;4977926;28;20041;-57
2022/08/15 05:08:16;;;;;;;8.85;2.92;;;21.80;99.90;;;;;;4985488;28;20042;-57
2022/08/15 05:10:48;;;;;;;5.93;2.65;;;21.80;99.90;;;;;;4978743;28;20390;-58
2022/08/15 05:13:20;;;;;;;5.10;2.90;;;21.90;99.90;;;;;;4982029;28;20889;-58
2022/08/15 05:15:47;;;;;;;3.70;2.50;;;21.90;99.90;;;;;;4985609;28;20042;-57
2022/08/15 05:18:14;;;;;;;3.75;2.90;;;22.10;99.90;;;;;;4981918;28;20023;-57
2022/08/15 05:20:41;;;;;;;7.15;2.85;;;22.10;99.90;;;;;;4999156;28;20034;-58
2022/08/15 05:23:10;;;;;;;8.15;3.17;;;22.10;99.90;;;;;;4980924;28;20040;-58
2022/08/15 05:25:38;;;;;;;5.10;2.65;;;22.20;99.90;;;;;;4980662;28;20026;-59
2022/08/15 05:28:05;;;;;;;6.47;2.70;;;22.20;99.90;;;;;;4984928;28;20371;-58
2022/08/15 05:30:31;;;;;;;7.93;2.53;;;22.20;99.90;;;;;;4984882;28;20453;-58
2022/08/15 05:33:13;;;;;;;7.10;2.78;;;22.20;99.90;;;;;;4981861;28;20038;-57
2022/08/15 05:35:45;;;;;;;8.02;2.95;;;22.20;99.90;;;;;;4983931;28;20398;-57
2022/08/15 05:38:23;;;;;;;8.45;3.35;;;22.20;99.90;;;;;;4982635;28;20030;-58
2022/08/15 05:41:14;;;;;;;3.90;3.03;;;22.20;99.90;;;;;;4983055;28;20264;-58
2022/08/15 05:43:58;;;;;;;7.78;2.65;;;22.20;99.90;;;;;;4993096;28;20062;-57
2022/08/15 05:46:23;;;;;;;3.85;2.67;;;22.30;99.90;;;;;;4987530;28;20098;-58
2022/08/15 05:49:18;;;;;;;5.72;2.70;;;22.30;99.90;;;;;;4987684;28;20445;-58
2022/08/15 05:52:07;;;;;;;9.23;3.42;;;22.30;99.90;;;;;;4988742;28;20065;-58
2022/08/15 05:55:03;;;;;;;5.70;2.83;;;22.20;99.90;;;;;;4987646;28;20393;-59
2022/08/15 05:58:10;;;;;;;8.43;3.05;;;22.20;99.90;;;;;;4986986;28;20046;-57
2022/08/15 06:00:38;;;;;;;6.03;2.75;;;22.20;99.90;;;;;;4964012;28;20405;-57
2022/08/15 06:03:14;;;;;;;6.13;3.00;;;22.30;99.90;;;;;;4960988;28;20054;-58
2022/08/15 06:05:44;;;;;;;11.63;3.17;;;22.40;99.90;;;;;;4970885;28;20481;-58
2022/08/15 06:08:17;;;;;;;7.18;2.58;;;22.50;99.90;;;;;;4981559;28;20022;-59
2022/08/15 06:10:48;;;;;;;7.07;3.17;;;22.50;99.90;;;;;;4983128;28;20498;-58
2022/08/15 06:13:20;;;;;;;6.78;2.90;;;22.60;99.90;;;;;;4985030;28;20038;-58
2022/08/15 06:15:51;;;;;;;7.47;3.00;;;22.60;99.90;;;;;;4978905;28;20401;-59
2022/08/15 06:18:18;;;;;;;5.53;3.35;;;22.60;99.90;;;;;;4984104;28;20608;-57
2022/08/15 06:20:53;;;;;;;7.22;3.30;;;22.60;99.90;;;;;;4983953;28;20041;-57
2022/08/15 06:23:45;;;;;;;7.28;3.08;;;22.60;99.90;;;;;;4986086;28;20042;-58
2022/08/15 06:26:31;;;;;;;5.78;2.72;;;22.50;99.90;;;;;;4980672;28;20531;-58
2022/08/15 06:29:17;;;;;;;6.82;3.25;;;22.70;99.90;;;;;;4981569;28;20038;-57
2022/08/15 06:31:52;;;;;;;7.10;3.13;;;22.80;99.90;;;;;;4989028;28;20026;-58
2022/08/15 06:34:51;;;;;;;5.53;2.75;;;22.80;99.90;;;;;;4987678;28;20038;-57
2022/08/15 06:37:23;;;;;;;11.35;2.63;;;22.90;99.90;;;;;;4985150;28;20109;-58
2022/08/15 06:40:03;;;;;;;6.60;2.65;;;22.90;99.90;;;;;;4985880;28;20113;-57
2022/08/15 06:42:39;;;;;;;4.28;2.70;;;22.90;99.90;;;;;;4994097;28;20108;-58
2022/08/15 06:45:22;;;;;;;4.70;2.50;;;22.90;99.90;;;;;;4985054;28;20034;-58
2022/08/15 06:47:50;;;;;;;3.70;2.40;;;23.00;99.90;;;;;;4985211;28;20251;-58
2022/08/15 06:50:26;;;;;;;8.00;2.97;;;23.00;99.90;;;;;;4985311;28;20025;-58
2022/08/15 06:52:57;;;;;;;6.10;2.97;;;22.90;99.90;;;;;;4987892;28;20027;-58
2022/08/15 06:55:26;;;;;;;8.38;3.03;;;23.10;99.90;;;;;;4986056;28;20109;-58
2022/08/15 06:58:05;;;;;;;6.45;3.05;;;23.10;99.90;;;;;;4966183;28;20026;-57
2022/08/15 07:00:42;;;;;;;9.32;3.10;;;23.30;99.90;;;;;;4977423;28;20034;-57
2022/08/15 07:03:41;;;;;;;6.40;3.30;;;23.30;99.90;;;;;;4985963;28;20034;-58
2022/08/15 07:06:10;;;;;;;7.95;3.08;;;23.30;99.90;;;;;;4979280;28;20030;-56
2022/08/15 07:08:41;;;;;;;7.50;3.35;;;23.30;99.90;;;;;;4984298;28;20018;-57
2022/08/15 07:11:32;;;;;;;5.05;3.03;;;23.30;99.90;;;;;;4986356;28;20034;-57
2022/08/15 07:14:07;;;;;;;7.82;2.90;;;23.30;99.90;;;;;;4984117;28;20038;-57
2022/08/15 07:17:00;;;;;;;4.85;2.65;;;23.40;99.90;;;;;;4987487;28;20512;-57
2022/08/15 07:19:26;;;;;;;8.17;2.97;;;23.50;99.90;;;;;;4988285;28;20125;-58
2022/08/15 07:21:51;;;;;;;12.10;3.30;;;23.40;99.90;;;;;;4987837;28;20485;-58
2022/08/15 07:24:17;;;;;;;5.90;3.28;;;23.30;99.90;;;;;;4984984;28;20081;-58
2022/08/15 07:27:06;;;;;;;6.75;3.00;;;23.30;99.90;;;;;;4986592;28;20422;-58
2022/08/15 07:29:37;;;;;;;9.73;3.50;;;23.50;99.90;;;;;;4983652;28;20521;-59
2022/08/15 07:32:17;;;;;;;7.00;3.08;;;23.40;99.90;;;;;;4982608;28;21195;-58
2022/08/15 07:35:14;;;;;;;8.35;3.40;;;23.30;99.90;;;;;;4982011;28;20076;-58
2022/08/15 07:37:58;;;;;;;7.53;3.00;;;23.30;99.90;;;;;;4984363;28;20031;-58
2022/08/15 07:40:36;;;;;;;8.50;3.10;;;23.30;99.90;;;;;;4982709;28;20121;-59
2022/08/15 07:43:20;;;;;;;13.73;3.33;;;23.30;99.90;;;;;;4985658;28;20030;-59
2022/08/15 07:45:46;;;;;;;7.32;3.70;;;23.40;99.90;;;;;;4983577;28;20568;-59
2022/08/15 07:48:27;;;;;;;4.82;2.85;;;23.30;99.90;;;;;;4986197;28;20121;-59
2022/08/15 07:51:18;;;;;;;7.22;3.03;;;23.30;99.90;;;;;;4984163;28;20035;-59
2022/08/15 07:54:19;;;;;;;7.70;3.47;;;23.40;99.90;;;;;;4988360;28;20069;-58
2022/08/15 07:56:54;;;;;;;50.22;4.68;;;23.40;99.90;;;;;;4982964;28;20030;-59
2022/08/15 07:59:30;;;;;;;7.30;3.53;;;23.40;99.90;;;;;;4985008;28;20133;-59
2022/08/15 08:02:29;;;;;;;9.30;3.10;;;23.50;99.90;;;;;;4987442;28;20550;-59
2022/08/15 08:04:56;;;;;;;8.07;2.90;;;23.50;99.90;;;;;;4983576;28;20266;-59
2022/08/15 08:07:48;;;;;;;9.90;3.20;;;23.50;99.90;;;;;;4978776;28;20022;-59
2022/08/15 08:10:31;;;;;;;6.95;3.28;;;23.50;99.90;;;;;;4985226;28;20118;-59
2022/08/15 08:13:25;;;;;;;8.15;3.25;;;23.60;99.90;;;;;;4981565;28;20034;-59
2022/08/15 08:16:24;;;;;;;10.98;3.15;;;23.70;99.90;;;;;;4984862;28;20382;-59
2022/08/15 08:19:10;;;;;;;5.97;3.40;;;23.80;99.90;;;;;;4986710;28;20114;-59
2022/08/15 08:21:50;;;;;;;10.95;3.63;;;23.90;99.90;;;;;;4985163;28;20389;-57
2022/08/15 08:24:47;;;;;;;6.93;3.13;;;23.90;99.90;;;;;;4983466;28;20038;-58
2022/08/15 08:27:25;;;;;;;6.65;3.20;;;23.90;99.90;;;;;;4977530;28;20018;-59
2022/08/15 08:30:06;;;;;;;6.93;3.50;;;24.00;99.90;;;;;;5003320;28;20133;-59
2022/08/15 08:32:50;;;;;;;9.93;3.25;;;24.10;99.90;;;;;;4984407;28;20053;-58
2022/08/15 08:35:22;;;;;;;6.95;3.00;;;24.20;99.90;;;;;;4985367;28;20034;-58
2022/08/15 08:38:08;;;;;;;5.63;3.05;;;24.30;99.90;;;;;;4984629;28;20118;-59
2022/08/15 08:44:06;;;;;;;5.88;3.42;;;24.40;99.90;;;;;;4985673;28;20073;-59
2022/08/15 08:46:55;;;;;;;14.30;4.00;;;24.50;99.90;;;;;;4987154;28;20426;-59
2022/08/15 08:49:30;;;;;;;8.93;3.33;;;24.50;99.90;;;;;;4985526;28;20040;-58
2022/08/15 08:52:15;;;;;;;7.45;3.33;;;24.60;99.90;;;;;;4987515;28;20136;-59
2022/08/15 08:55:14;;;;;;;6.72;3.65;;;24.80;99.90;;;;;;4983069;28;20604;-58
2022/08/15 08:57:52;;;;;;;6.78;3.40;;;24.60;99.90;;;;;;4984211;28;20498;-59
2022/08/15 09:00:20;;;;;;;9.00;3.90;;;24.60;99.90;;;;;;4988919;28;20034;-59
2022/08/15 09:02:58;;;;;;;8.05;3.67;;;24.60;99.90;;;;;;4984383;28;20085;-58
2022/08/15 09:05:36;;;;;;;7.13;3.70;;;24.50;99.90;;;;;;4982735;28;20031;-59
2022/08/15 09:08:12;;;;;;;13.60;3.33;;;24.50;99.90;;;;;;4986012;28;20038;-60
2022/08/15 09:10:42;;;;;;;8.15;3.53;;;24.70;99.90;;;;;;4988889;28;20030;-60
2022/08/15 09:15:57;;;;;;;11.52;5.07;;;24.80;99.90;;;;;;4993690;28;20114;-59
2022/08/15 09:18:29;;;;;;;10.25;3.55;;;24.80;99.90;;;;;;4987058;28;20021;-59
2022/08/15 09:20:56;;;;;;;7.67;3.53;;;24.70;99.90;;;;;;5003533;28;20037;-59
2022/08/15 09:23:23;;;;;;;7.10;3.65;;;24.60;99.90;;;;;;4988284;28;20088;-60
2022/08/15 09:26:05;;;;;;;6.13;3.97;;;24.60;99.90;;;;;;4988128;28;20026;-59
2022/08/15 09:28:34;;;;;;;9.47;6.60;;;24.70;99.90;;;;;;4987008;28;20061;-59
2022/08/15 09:31:13;;;;;;;9.90;4.10;;;24.70;99.90;;;;;;4984932;28;20108;-58
2022/08/15 09:33:53;;;;;;;9.00;3.92;;;24.80;99.90;;;;;;4989784;28;20037;-59
2022/08/15 09:36:22;;;;;;;7.75;3.85;;;24.80;99.90;;;;;;4993605;28;20026;-58
2022/08/15 09:38:55;;;;;;;12.63;4.28;;;25.00;99.90;;;;;;4990859;28;20034;-59
2022/08/15 09:41:43;;;;;;;6.15;3.55;;;24.80;99.90;;;;;;4989239;28;20378;-58
2022/08/15 09:44:37;;;;;;;10.48;4.03;;;24.70;99.90;;;;;;4990448;28;20020;-58
2022/08/15 09:47:48;;;;;;;7.72;3.95;;;24.80;99.90;;;;;;4992636;28;20091;-58
2022/08/15 09:50:52;;;;;;;10.23;3.60;;;24.80;99.90;;;;;;5001312;28;20038;-59
2022/08/15 09:53:26;;;;;;;9.18;4.20;;;24.80;99.90;;;;;;4988883;28;20061;-58
2022/08/15 09:55:53;;;;;;;9.07;4.03;;;24.80;99.90;;;;;;4989041;28;20018;-58
2022/08/15 09:58:31;;;;;;;8.38;4.47;;;24.80;99.90;;;;;;4989740;28;20089;-60
2022/08/15 10:01:03;;;;;;;9.48;4.10;;;24.70;99.90;;;;;;4992143;28;20615;-59
2022/08/15 10:03:43;;;;;;;12.57;3.83;;;24.70;99.90;;;;;;4990777;28;20034;-59
2022/08/15 10:06:18;;;;;;;11.40;3.80;;;24.80;99.90;;;;;;4988121;28;20046;-59
2022/08/15 10:08:52;;;;;;;8.80;4.20;;;24.70;99.90;;;;;;4980238;28;20445;-59
2022/08/15 10:11:46;;;;;;;6.75;4.10;;;24.80;99.90;;;;;;4983849;28;20053;-59
2022/08/15 10:14:27;;;;;;;7.80;4.47;;;24.80;99.90;;;;;;4996313;28;20041;-60
2022/08/15 10:17:04;;;;;;;8.48;3.85;;;24.80;99.90;;;;;;4987076;28;20041;-58
2022/08/15 10:19:39;;;;;;;6.85;4.20;;;24.80;99.90;;;;;;4983682;28;20038;-59
2022/08/15 10:22:31;;;;;;;8.25;4.47;;;24.80;99.90;;;;;;4989448;28;20034;-58
2022/08/15 10:25:30;;;;;;;6.32;3.97;;;25.00;99.90;;;;;;4984885;28;20089;-59
2022/08/15 10:28:11;;;;;;;8.65;4.20;;;24.80;99.90;;;;;;4998752;28;20029;-59
2022/08/15 10:30:44;;;;;;;7.35;4.07;;;24.90;99.90;;;;;;4986510;28;20026;-58
2022/08/15 10:33:34;;;;;;;9.07;4.10;;;25.20;99.90;;;;;;4988259;28;20042;-59
2022/08/15 10:36:13;;;;;;;10.18;4.40;;;25.40;99.90;;;;;;4985957;28;20357;-59
2022/08/15 10:38:45;;;;;;;8.73;4.00;;;25.20;99.90;;;;;;4989143;28;20054;-60
2022/08/15 10:41:50;;;;;;;6.18;4.35;;;25.30;99.90;;;;;;4985955;28;20113;-59
2022/08/15 10:44:30;;;;;;;10.20;4.32;;;25.40;99.90;;;;;;4989782;28;20109;-59
2022/08/15 10:47:18;;;;;;;11.23;4.68;;;25.90;99.90;;;;;;4986348;28;20240;-58
2022/08/15 10:50:09;;;;;;;7.97;4.70;;;25.70;99.90;;;;;;4982284;28;20022;-59
2022/08/15 10:52:57;;;;;;;11.30;4.43;;;25.40;99.90;;;;;;4987945;28;20030;-60
2022/08/15 10:55:33;;;;;;;10.43;3.95;;;25.40;99.90;;;;;;4988695;28;20486;-58
2022/08/15 10:58:19;;;;;;;8.52;5.53;;;25.50;99.90;;;;;;4986536;28;20505;-60
2022/08/15 11:01:08;;;;;;;8.57;4.97;;;25.40;99.90;;;;;;4989164;28;20034;-58
2022/08/15 11:03:43;;;;;;;8.88;4.78;;;25.20;99.90;;;;;;4987488;28;20045;-59
2022/08/15 11:06:15;;;;;;;8.82;4.65;;;24.90;99.90;;;;;;4988857;28;20042;-58
2022/08/15 11:08:50;;;;;;;8.48;5.03;;;25.00;99.90;;;;;;4986792;28;20032;-59
2022/08/15 11:11:19;;;;;;;6.25;4.75;;;25.00;99.90;;;;;;4983442;28;20056;-59
2022/08/15 11:13:52;;;;;;;9.18;4.72;;;25.00;99.90;;;;;;4989258;28;20034;-59
2022/08/15 11:16:25;;;;;;;8.85;5.03;;;24.80;99.90;;;;;;4986872;28;20591;-57
2022/08/15 11:18:54;;;;;;;7.32;5.03;;;24.80;99.90;;;;;;4991664;28;20516;-58
2022/08/15 11:21:31;;;;;;;9.30;5.05;;;24.80;99.90;;;;;;4988586;28;20438;-59
2022/08/15 11:24:02;;;;;;;7.20;4.72;;;24.80;99.90;;;;;;4990429;28;20396;-59
2022/08/15 11:26:32;;;;;;;12.23;4.95;;;24.80;99.90;;;;;;4985081;28;20022;-60
2022/08/15 11:29:08;;;;;;;11.05;5.10;;;24.70;99.90;;;;;;4987895;28;20105;-59
2022/08/15 11:31:50;;;;;;;8.30;4.72;;;24.80;99.90;;;;;;4985667;28;20062;-59
2022/08/15 11:34:43;;;;;;;8.77;5.00;;;24.70;99.90;;;;;;4985356;28;20034;-60
2022/08/15 11:37:20;;;;;;;8.43;5.30;;;24.50;99.90;;;;;;4983204;28;20031;-58
2022/08/15 11:40:06;;;;;;;7.55;4.95;;;24.50;99.90;;;;;;4992477;28;20069;-59
2022/08/15 11:42:39;;;;;;;10.18;4.85;;;24.50;99.90;;;;;;4984715;28;20482;-59
2022/08/15 11:45:11;;;;;;;7.90;4.82;;;24.50;99.90;;;;;;4989457;28;20038;-59
2022/08/15 11:47:45;;;;;;;9.77;5.00;;;24.50;99.90;;;;;;4991692;28;20030;-58
2022/08/15 11:50:27;;;;;;;7.22;4.95;;;24.60;99.90;;;;;;4989604;28;20037;-59
2022/08/15 11:52:56;;;;;;;11.18;4.68;;;24.80;99.90;;;;;;4990404;28;20038;-58
2022/08/15 11:55:44;;;;;;;10.40;5.30;;;24.80;99.90;;;;;;4986118;28;20072;-59
2022/08/15 11:58:13;;;;;;;9.50;5.07;;;24.60;99.90;;;;;;4987682;28;20091;-58
2022/08/15 12:00:38;;;;;;;12.10;5.05;;;24.60;99.90;;;;;;4986525;28;20034;-59
2022/08/15 12:03:21;;;;;;;11.32;5.72;;;24.80;99.90;;;;;;4990208;28;20088;-59
2022/08/15 12:05:49;;;;;;;13.27;5.60;;;24.80;99.90;;;;;;4978806;28;20110;-58
2022/08/15 12:08:23;;;;;;;10.43;4.95;;;24.80;99.90;;;;;;4989473;28;20041;-59
2022/08/15 12:10:50;;;;;;;12.38;5.80;;;24.80;99.90;;;;;;4987561;28;20030;-60
2022/08/15 12:13:17;;;;;;;9.10;5.10;;;24.70;99.90;;;;;;4984800;28;20025;-60
2022/08/15 12:15:44;;;;;;;9.80;4.85;;;24.70;99.90;;;;;;4987226;28;20566;-60
2022/08/15 12:18:32;;;;;;;9.55;4.70;;;24.80;99.90;;;;;;4987731;28;20056;-59
2022/08/15 12:21:02;;;;;;;18.00;4.88;;;25.00;99.90;;;;;;4986636;28;20029;-60
2022/08/15 12:23:52;;;;;;;22.05;4.65;;;24.90;99.90;;;;;;4987368;28;20026;-59
2022/08/15 12:26:19;;;;;;;45.33;6.43;;;24.80;99.90;;;;;;4985101;28;20684;-59
2022/08/15 12:28:45;;;;;;;9.40;4.57;;;24.70;99.90;;;;;;4990601;28;20061;-60
2022/08/15 12:31:35;;;;;;;15.95;5.60;;;24.70;99.90;;;;;;4989249;28;20034;-59
2022/08/15 12:34:04;;;;;;;12.25;4.90;;;24.80;99.90;;;;;;4986074;28;20027;-60
2022/08/15 12:36:31;;;;;;;7.40;4.60;;;24.90;99.90;;;;;;4982626;28;20021;-60
2022/08/15 12:38:57;;;;;;;8.02;4.93;;;24.90;99.90;;;;;;4992265;28;20031;-61
2022/08/15 12:41:23;;;;;;;12.30;5.45;;;24.80;99.90;;;;;;4985506;28;20033;-60
2022/08/15 12:43:49;;;;;;;16.02;4.72;;;24.60;99.90;;;;;;4988246;28;20540;-60
2022/08/15 12:46:14;;;;;;;14.00;4.72;;;24.50;99.90;;;;;;4985023;28;20042;-59
2022/08/15 12:48:40;;;;;;;8.23;5.20;;;24.70;99.90;;;;;;4985052;28;20034;-60
2022/08/15 12:51:09;;;;;;;8.35;4.82;;;24.60;99.90;;;;;;4985398;28;20018;-60
2022/08/15 12:53:38;;;;;;;7.15;4.55;;;24.70;99.90;;;;;;4984505;28;20038;-59
2022/08/15 12:56:07;;;;;;;7.75;4.43;;;24.50;99.90;;;;;;4984409;28;20579;-60
2022/08/15 12:58:33;;;;;;;11.25;4.80;;;24.50;99.90;;;;;;4984957;28;20018;-60
2022/08/15 13:01:00;;;;;;;9.27;4.88;;;24.60;99.90;;;;;;4985964;28;20036;-60
2022/08/15 13:03:30;;;;;;;8.50;5.30;;;24.70;99.90;;;;;;4984321;28;20105;-60
2022/08/15 13:06:03;;;;;;;7.68;4.57;;;24.90;99.90;;;;;;4977792;28;20030;-60
2022/08/15 13:08:29;;;;;;;7.80;5.07;;;25.20;99.90;;;;;;4978898;28;20494;-59
2022/08/15 13:10:54;;;;;;;7.65;5.25;;;25.40;99.90;;;;;;4985139;28;20042;-61
2022/08/15 13:13:21;;;;;;;8.70;4.75;;;25.60;99.90;;;;;;4983369;28;20045;-60
2022/08/15 13:15:48;;;;;;;9.70;5.43;;;25.70;99.90;;;;;;4984945;28;20119;-59
2022/08/15 13:18:19;;;;;;;7.93;4.97;;;25.60;99.90;;;;;;4984647;28;20085;-58
2022/08/15 13:23:38;;;;;;;9.85;4.47;;;25.80;99.90;;;;;;4976347;28;20240;-59
2022/08/15 13:26:13;;;;;;;9.38;4.78;;;26.00;99.90;;;;;;4983382;28;20026;-59
2022/08/15 13:28:42;;;;;;;5.88;4.60;;;26.20;99.90;;;;;;4987269;28;20531;-60
2022/08/15 13:31:09;;;;;;;7.85;5.10;;;26.20;99.90;;;;;;4983292;28;20484;-59